createdAt,value
2022-10-22T00:01:56.980Z,38.00
2022-10-22T00:04:31.435Z,40.77
2022-10-22T00:07:03.143Z,43.40
2022-10-22T00:09:31.675Z,41.33
2022-10-22T00:12:00.355Z,44.87
2022-10-22T00:14:28.986Z,44.80
2022-10-22T00:17:00.904Z,35.77
2022-10-22T00:19:31.174Z,44.53
2022-10-22T00:21:59.683Z,40.33
2022-10-22T00:24:28.282Z,44.27
2022-10-22T00:26:56.726Z,40.90
2022-10-22T00:29:25.438Z,39.70
2022-10-22T00:34:27.546Z,41.20
2022-10-22T00:36:57.343Z,41.70
2022-10-22T00:39:29.008Z,42.50
2022-10-22T00:41:59.666Z,41.00
2022-10-22T00:45:04.262Z,42.23
2022-10-22T00:47:37.808Z,39.17
2022-10-22T00:50:12.601Z,38.90
2022-10-22T00:52:43.003Z,36.03
2022-10-22T00:55:13.451Z,39.83
2022-10-22T00:57:42.862Z,43.80
2022-10-22T01:00:13.143Z,37.53
2022-10-22T01:02:42.214Z,45.30
2022-10-22T01:05:11.702Z,41.47
2022-10-22T01:07:48.997Z,40.93
2022-10-22T01:10:43.924Z,49.00
2022-10-22T01:13:30.626Z,39.43
2022-10-22T01:16:09.982Z,42.97
2022-10-22T01:18:50.178Z,46.60
2022-10-22T01:21:32.298Z,50.90
2022-10-22T01:24:36.688Z,41.20
2022-10-22T01:27:45.440Z,39.20
2022-10-22T01:30:18.271Z,46.53
2022-10-22T01:32:51.234Z,44.63
2022-10-22T01:35:26.439Z,44.53
2022-10-22T01:38:00.401Z,43.17
2022-10-22T01:40:31.294Z,41.10
2022-10-22T01:43:02.009Z,40.07
2022-10-22T01:45:37.254Z,48.67
2022-10-22T01:48:27.267Z,37.80
2022-10-22T01:51:30.122Z,44.30
2022-10-22T01:54:07.899Z,46.27
2022-10-22T01:56:54.226Z,44.90
2022-10-22T01:59:40.989Z,47.10
2022-10-22T02:02:25.510Z,49.27
2022-10-22T02:05:02.155Z,49.77
2022-10-22T02:07:38.607Z,44.17
2022-10-22T02:10:11.199Z,42.50
2022-10-22T02:12:42.670Z,45.97
2022-10-22T02:15:14.516Z,45.67
2022-10-22T02:17:47.687Z,54.23
2022-10-22T02:20:23.842Z,46.60
2022-10-22T02:22:52.681Z,48.30
2022-10-22T02:25:25.952Z,46.40
2022-10-22T02:28:06.280Z,46.33
2022-10-22T02:30:37.167Z,47.37
2022-10-22T02:33:15.191Z,45.97
2022-10-22T02:35:45.622Z,42.27
2022-10-22T02:38:15.066Z,53.27
2022-10-22T02:40:43.783Z,45.30
2022-10-22T02:43:12.479Z,53.27
2022-10-22T02:45:41.173Z,48.73
2022-10-22T02:48:11.495Z,51.53
2022-10-22T02:50:39.978Z,53.60
2022-10-22T02:53:08.555Z,57.00
2022-10-22T02:55:37.367Z,51.77
2022-10-22T02:58:06.032Z,47.67
2022-10-22T03:00:34.552Z,57.87
2022-10-22T03:03:03.054Z,50.90
2022-10-22T03:05:33.029Z,49.53
2022-10-22T03:08:01.472Z,53.50
2022-10-22T03:10:29.997Z,53.13
2022-10-22T03:12:58.528Z,54.50
2022-10-22T03:17:56.757Z,57.53
2022-10-22T03:20:25.194Z,53.40
2022-10-22T03:22:56.778Z,59.20
2022-10-22T03:25:31.058Z,61.97
2022-10-22T03:28:05.051Z,71.73
2022-10-22T03:30:33.660Z,59.57
2022-10-22T03:33:02.088Z,64.43
2022-10-22T03:35:32.427Z,60.03
2022-10-22T03:38:03.133Z,55.57
2022-10-22T03:40:31.667Z,58.90
2022-10-22T03:43:00.536Z,54.00
2022-10-22T03:45:29.067Z,63.20
2022-10-22T03:47:57.959Z,63.83
2022-10-22T03:50:26.486Z,60.53
2022-10-22T03:52:55.073Z,65.17
2022-10-22T03:55:25.375Z,70.40
2022-10-22T03:57:54.052Z,71.50
2022-10-22T04:00:22.806Z,56.60
2022-10-22T04:02:51.323Z,65.77
2022-10-22T04:05:19.752Z,56.70
2022-10-22T04:07:48.197Z,58.87
2022-10-22T04:10:16.854Z,54.90
2022-10-22T04:12:48.710Z,60.73
2022-10-22T04:15:17.876Z,60.20
2022-10-22T04:17:46.316Z,63.30
2022-10-22T04:20:14.902Z,64.60
2022-10-22T04:22:43.371Z,58.53
2022-10-22T04:25:11.949Z,59.40
2022-10-22T04:27:40.563Z,58.87
2022-10-22T04:30:12.297Z,60.50
2022-10-22T04:32:40.771Z,59.97
2022-10-22T04:35:09.890Z,57.37
2022-10-22T04:37:39.121Z,64.43
2022-10-22T04:40:09.825Z,56.73
2022-10-22T04:42:38.301Z,57.40
2022-10-22T04:45:07.715Z,57.50
2022-10-22T04:47:37.623Z,63.30
2022-10-22T04:50:07.644Z,56.00
2022-10-22T04:52:36.178Z,54.97
2022-10-22T04:55:05.297Z,64.47
2022-10-22T04:57:34.179Z,60.83
2022-10-22T05:00:02.753Z,56.40
2022-10-22T05:02:31.297Z,54.53
2022-10-22T05:05:01.250Z,56.40
2022-10-22T05:07:29.910Z,55.93
2022-10-22T05:09:58.400Z,60.77
2022-10-22T05:12:26.972Z,54.93
2022-10-22T05:14:56.005Z,60.67
2022-10-22T05:17:24.547Z,57.63
2022-10-22T05:19:53.015Z,61.37
2022-10-22T05:22:22.969Z,63.57
2022-10-22T05:24:51.397Z,55.30
2022-10-22T05:29:53.629Z,65.77
2022-10-22T05:32:23.055Z,66.37
2022-10-22T05:34:51.489Z,58.20
2022-10-22T05:37:19.950Z,63.60
2022-10-22T05:39:57.568Z,60.33
2022-10-22T05:42:37.892Z,75.03
2022-10-22T05:45:08.251Z,57.87
2022-10-22T05:47:36.709Z,57.03
2022-10-22T05:50:05.788Z,51.70
2022-10-22T05:52:35.942Z,61.30
2022-10-22T05:55:06.745Z,58.57
2022-10-22T05:57:35.288Z,61.50
2022-10-22T06:00:04.171Z,44.97
2022-10-22T06:02:33.116Z,54.83
2022-10-22T06:05:01.699Z,58.27
2022-10-22T06:07:30.305Z,55.63
2022-10-22T06:09:58.953Z,72.30
2022-10-22T06:12:28.865Z,57.30
2022-10-22T06:14:57.461Z,64.20
2022-10-22T06:17:25.996Z,54.43
2022-10-22T06:19:54.573Z,62.43
2022-10-22T06:22:23.171Z,62.93
2022-10-22T06:24:52.890Z,63.27
2022-10-22T06:27:21.489Z,55.13
2022-10-22T06:29:51.413Z,67.43
2022-10-22T06:32:19.956Z,57.00
2022-10-22T06:34:50.428Z,54.57
2022-10-22T06:37:19.119Z,67.90
2022-10-22T06:39:47.599Z,55.87
2022-10-22T06:42:16.019Z,61.23
2022-10-22T06:44:45.562Z,59.20
2022-10-22T06:47:15.516Z,66.00
2022-10-22T06:49:44.020Z,59.73
2022-10-22T06:52:13.773Z,54.23
2022-10-22T06:54:42.299Z,62.60
2022-10-22T06:57:10.811Z,55.70
2022-10-22T06:59:39.412Z,61.50
2022-10-22T07:02:08.055Z,55.30
2022-10-22T07:04:38.084Z,67.57
2022-10-22T07:07:06.627Z,57.20
2022-10-22T07:09:35.252Z,58.13
2022-10-22T07:12:04.436Z,64.00
2022-10-22T07:14:33.280Z,55.07
2022-10-22T07:17:02.199Z,54.57
2022-10-22T07:19:31.519Z,58.60
2022-10-22T07:22:01.557Z,57.40
2022-10-22T07:24:31.356Z,62.37
2022-10-22T07:27:00.398Z,61.50
2022-10-22T07:29:29.604Z,72.27
2022-10-22T07:31:59.889Z,55.40
2022-10-22T07:34:31.098Z,53.30
2022-10-22T07:37:05.026Z,53.77
2022-10-22T07:39:33.932Z,47.97
2022-10-22T07:42:03.325Z,53.20
2022-10-22T07:44:32.041Z,50.90
2022-10-22T07:47:00.613Z,52.47
2022-10-22T07:49:29.125Z,51.50
2022-10-22T07:51:58.068Z,42.33
2022-10-22T07:54:28.191Z,48.37
2022-10-22T07:56:56.733Z,56.93
2022-10-22T07:59:25.291Z,49.57
2022-10-22T08:01:53.814Z,43.20
2022-10-22T08:04:22.383Z,35.57
2022-10-22T08:06:50.914Z,37.53
2022-10-22T08:09:19.687Z,36.43
2022-10-22T08:11:49.634Z,30.13
2022-10-22T08:14:18.332Z,30.83
2022-10-22T08:16:47.037Z,37.57
2022-10-22T08:19:18.736Z,32.13
2022-10-22T08:21:47.546Z,26.53
2022-10-22T08:24:16.420Z,29.40
2022-10-22T08:26:45.100Z,35.90
2022-10-22T08:29:15.022Z,28.70
2022-10-22T08:31:43.677Z,30.60
2022-10-22T08:34:13.547Z,30.37
2022-10-22T08:36:42.407Z,27.80
2022-10-22T08:39:11.406Z,23.77
2022-10-22T08:41:50.918Z,28.20
2022-10-22T08:44:56.820Z,28.50
2022-10-22T08:48:01.943Z,25.80
2022-10-22T08:50:39.787Z,20.57
2022-10-22T08:53:15.532Z,18.17
2022-10-22T08:55:44.982Z,26.60
2022-10-22T08:58:25.488Z,18.50
2022-10-22T09:01:01.153Z,18.10
2022-10-22T09:03:46.754Z,14.93
2022-10-22T09:06:20.850Z,14.20
2022-10-22T09:08:49.908Z,19.27
2022-10-22T09:11:29.296Z,14.87
2022-10-22T09:13:59.187Z,15.90
2022-10-22T09:16:44.113Z,14.10
2022-10-22T09:19:26.353Z,16.60
2022-10-22T09:22:09.239Z,12.80
2022-10-22T09:24:43.052Z,15.43
2022-10-22T09:27:16.409Z,22.90
2022-10-22T09:29:46.802Z,17.60
2022-10-22T09:32:19.140Z,12.70
2022-10-22T09:34:50.037Z,13.77
2022-10-22T09:37:25.828Z,13.33
2022-10-22T09:39:56.657Z,13.53
2022-10-22T09:42:25.833Z,15.80
2022-10-22T09:44:57.627Z,12.53
2022-10-22T09:48:00.408Z,11.93
2022-10-22T09:50:38.076Z,11.87
2022-10-22T09:53:16.332Z,12.03
2022-10-22T09:55:45.235Z,14.03
2022-10-22T09:58:15.181Z,12.00
2022-10-22T10:00:48.606Z,13.80
2022-10-22T10:03:23.979Z,10.80
2022-10-22T10:05:58.031Z,11.50
2022-10-22T10:08:28.684Z,17.63
2022-10-22T10:11:04.800Z,11.50
2022-10-22T10:13:50.553Z,12.50
2022-10-22T10:16:39.482Z,13.50
2022-10-22T10:19:31.589Z,11.90
2022-10-22T10:22:15.430Z,12.57
2022-10-22T10:25:05.275Z,10.93
2022-10-22T10:27:41.794Z,17.23
2022-10-22T10:30:16.992Z,12.23
2022-10-22T10:33:07.979Z,10.77
2022-10-22T10:35:50.574Z,12.20
2022-10-22T10:38:36.154Z,11.77
2022-10-22T10:41:19.168Z,11.23
2022-10-22T10:44:11.835Z,13.23
2022-10-22T10:46:56.144Z,11.87
2022-10-22T10:49:28.083Z,10.80
2022-10-22T10:52:12.439Z,10.73
2022-10-22T10:54:52.387Z,11.40
2022-10-22T10:57:38.158Z,11.30
2022-10-22T11:00:15.695Z,11.73
2022-10-22T11:03:47.233Z,11.37
2022-10-22T11:06:23.103Z,11.13
2022-10-22T11:09:03.829Z,13.77
2022-10-22T11:11:40.986Z,14.03
2022-10-22T11:14:18.731Z,10.70
2022-10-22T11:16:55.500Z,13.10
2022-10-22T11:19:50.362Z,13.90
2022-10-22T11:22:27.658Z,11.37
2022-10-22T11:25:06.847Z,10.73
2022-10-22T11:27:44.017Z,11.10
2022-10-22T11:30:17.346Z,12.40
2022-10-22T11:32:55.881Z,10.70
2022-10-22T11:35:29.690Z,12.23
2022-10-22T11:37:59.817Z,20.93
2022-10-22T11:40:38.278Z,12.80
2022-10-22T11:43:10.180Z,16.40
2022-10-22T11:45:41.014Z,12.93
2022-10-22T11:48:34.801Z,11.30
2022-10-22T11:51:05.253Z,17.30
2022-10-22T11:53:37.297Z,14.00
2022-10-22T11:56:26.009Z,10.83
2022-10-22T11:58:56.742Z,11.27
2022-10-22T12:01:30.249Z,12.50
2022-10-22T12:04:22.537Z,12.30
2022-10-22T12:07:33.810Z,11.73
2022-10-22T12:10:07.033Z,10.40
2022-10-22T12:12:41.064Z,12.53
2022-10-22T12:15:27.045Z,10.80
2022-10-22T12:18:03.189Z,11.00
2022-10-22T12:20:32.508Z,13.03
2022-10-22T12:23:02.783Z,12.43
2022-10-22T12:25:35.641Z,15.30
2022-10-22T12:28:11.257Z,15.17
2022-10-22T12:30:41.337Z,10.50
2022-10-22T12:33:22.623Z,10.50
2022-10-22T12:35:57.398Z,11.00
2022-10-22T12:38:26.581Z,11.73
2022-10-22T12:40:57.911Z,12.23
2022-10-22T12:43:30.961Z,12.43
2022-10-22T12:46:01.091Z,11.00
2022-10-22T12:48:34.760Z,11.30
2022-10-22T12:51:08.001Z,11.20
2022-10-22T12:53:40.716Z,10.17
2022-10-22T12:56:16.450Z,11.43
2022-10-22T12:58:52.872Z,10.90
2022-10-22T13:01:21.703Z,16.10
2022-10-22T13:03:52.821Z,15.30
2022-10-22T13:06:27.243Z,10.67
2022-10-22T13:09:15.854Z,12.60
2022-10-22T13:11:54.234Z,17.40
2022-10-22T13:14:30.292Z,10.77
2022-10-22T13:17:08.602Z,12.60
2022-10-22T13:19:51.523Z,10.90
2022-10-22T13:22:37.117Z,23.70
2022-10-22T13:25:25.094Z,94.20
2022-10-22T13:27:57.591Z,10.47
2022-10-22T13:30:31.561Z,16.40
2022-10-22T13:33:03.431Z,15.80
2022-10-22T13:35:35.734Z,14.37
2022-10-22T13:38:04.744Z,27.83
2022-10-22T13:40:33.478Z,14.93
2022-10-22T13:43:01.988Z,16.50
2022-10-22T13:45:31.894Z,12.60
2022-10-22T13:48:00.377Z,11.30
2022-10-22T13:50:28.868Z,15.00
2022-10-22T13:52:59.601Z,14.63
2022-10-22T13:55:31.259Z,16.47
2022-10-22T13:58:07.547Z,11.50
2022-10-22T14:00:43.010Z,19.73
2022-10-22T14:03:14.623Z,10.57
2022-10-22T14:05:43.646Z,15.07
2022-10-22T14:08:15.183Z,11.93
2022-10-22T14:10:44.437Z,10.57
2022-10-22T14:13:14.441Z,10.70
2022-10-22T14:15:47.215Z,11.43
2022-10-22T14:18:26.500Z,10.43
2022-10-22T14:20:59.860Z,12.53
2022-10-22T14:23:31.545Z,10.90
2022-10-22T14:26:01.762Z,20.20
2022-10-22T14:28:34.200Z,11.20
2022-10-22T14:31:12.702Z,11.00
2022-10-22T14:33:42.107Z,10.60
2022-10-22T14:36:14.168Z,13.20
2022-10-22T14:38:43.151Z,10.47
2022-10-22T14:41:22.615Z,11.57
2022-10-22T14:43:55.351Z,10.97
2022-10-22T14:46:25.323Z,13.73
2022-10-22T14:48:53.815Z,10.27
2022-10-22T14:51:23.525Z,10.07
2022-10-22T14:53:51.991Z,11.73
2022-10-22T14:56:22.240Z,12.57
2022-10-22T14:58:51.705Z,10.10
2022-10-22T15:01:20.466Z,11.00
2022-10-22T15:03:50.384Z,11.47
2022-10-22T15:06:18.897Z,10.17
2022-10-22T15:08:47.626Z,10.67
2022-10-22T15:11:16.203Z,12.83
2022-10-22T15:13:44.837Z,12.70
2022-10-22T15:16:16.445Z,9.90
2022-10-22T15:18:44.949Z,15.47
2022-10-22T15:21:19.603Z,10.57
2022-10-22T15:23:49.336Z,14.00
2022-10-22T15:26:18.454Z,11.37
2022-10-22T15:28:46.917Z,18.33
2022-10-22T15:31:16.133Z,10.73
2022-10-22T15:33:45.261Z,10.67
2022-10-22T15:36:17.913Z,12.77
2022-10-22T15:38:46.587Z,15.10
2022-10-22T15:41:15.031Z,10.40
2022-10-22T15:43:43.501Z,11.20
2022-10-22T15:46:15.317Z,11.47
2022-10-22T15:48:44.987Z,13.43
2022-10-22T15:51:17.978Z,14.70
2022-10-22T15:53:53.314Z,11.93
2022-10-22T15:56:22.873Z,10.80
2022-10-22T15:58:55.463Z,13.07
2022-10-22T16:01:24.458Z,11.10
2022-10-22T16:04:00.236Z,18.10
2022-10-22T16:06:33.151Z,10.97
2022-10-22T16:09:04.930Z,16.83
2022-10-22T16:11:55.783Z,13.37
2022-10-22T16:14:25.017Z,10.60
2022-10-22T16:16:56.506Z,12.13
2022-10-22T16:19:25.805Z,13.80
2022-10-22T16:21:57.809Z,11.17
2022-10-22T16:24:26.737Z,13.20
2022-10-22T16:26:55.791Z,11.30
2022-10-22T16:29:24.363Z,12.67
2022-10-22T16:31:52.785Z,13.40
2022-10-22T16:34:21.526Z,13.33
2022-10-22T16:39:22.289Z,15.80
2022-10-22T16:41:51.843Z,12.20
2022-10-22T16:44:20.383Z,13.50
2022-10-22T16:46:48.996Z,13.37
2022-10-22T16:49:17.523Z,14.90
2022-10-22T16:51:45.997Z,15.37
2022-10-22T16:54:15.664Z,14.10
2022-10-22T16:56:45.760Z,12.43
2022-10-22T16:59:14.365Z,12.83
2022-10-22T17:01:42.993Z,11.90
2022-10-22T17:04:11.790Z,15.63
2022-10-22T17:06:40.643Z,14.90
2022-10-22T17:09:09.302Z,19.23
2022-10-22T17:11:40.152Z,12.87
2022-10-22T17:14:12.877Z,12.80
2022-10-22T17:16:41.508Z,14.63
2022-10-22T17:19:14.087Z,17.23
2022-10-22T17:21:43.150Z,16.20
2022-10-22T17:24:12.134Z,16.23
2022-10-22T17:26:42.066Z,15.73
2022-10-22T17:29:13.624Z,22.17
2022-10-22T17:31:42.438Z,19.60
2022-10-22T17:34:18.361Z,17.60
2022-10-22T17:36:46.864Z,14.90
2022-10-22T17:39:19.486Z,18.77
2022-10-22T17:41:48.082Z,16.93
2022-10-22T17:44:18.556Z,15.03
2022-10-22T17:46:49.758Z,15.80
2022-10-22T17:49:21.320Z,17.43
2022-10-22T17:51:50.510Z,17.60
2022-10-22T17:54:19.186Z,19.00
2022-10-22T17:56:47.873Z,17.23
2022-10-22T17:59:19.171Z,20.00
2022-10-22T18:01:48.818Z,16.57
2022-10-22T18:04:43.762Z,20.37
2022-10-22T18:07:13.434Z,16.33
2022-10-22T18:09:43.977Z,19.37
2022-10-22T18:12:14.841Z,18.53
2022-10-22T18:14:45.460Z,23.00
2022-10-22T18:19:43.061Z,19.93
2022-10-22T18:22:11.670Z,19.77
2022-10-22T18:24:40.561Z,20.37
2022-10-22T18:27:09.122Z,19.30
2022-10-22T18:29:38.706Z,21.47
2022-10-22T18:32:12.961Z,19.87
2022-10-22T18:34:42.633Z,22.80
2022-10-22T18:37:11.312Z,23.43
2022-10-22T18:39:40.261Z,23.40
2022-10-22T18:42:09.079Z,27.03
2022-10-22T18:44:37.875Z,24.90
2022-10-22T18:47:08.665Z,24.27
2022-10-22T18:49:37.161Z,23.00
2022-10-22T18:52:05.974Z,23.50
2022-10-22T18:54:35.891Z,22.20
2022-10-22T18:57:04.963Z,22.97
2022-10-22T18:59:33.558Z,24.30
2022-10-22T19:02:02.151Z,22.10
2022-10-22T19:04:36.903Z,23.30
2022-10-22T19:07:06.394Z,26.03
2022-10-22T19:09:35.386Z,26.93
2022-10-22T19:12:04.592Z,25.70
2022-10-22T19:14:33.795Z,39.30
2022-10-22T19:17:02.722Z,35.50
2022-10-22T19:19:32.704Z,32.23
2022-10-22T19:22:01.470Z,29.13
2022-10-22T19:24:30.259Z,32.67
2022-10-22T19:26:58.944Z,30.80
2022-10-22T19:29:27.656Z,36.00
2022-10-22T19:31:56.376Z,31.43
2022-10-22T19:34:25.091Z,33.50
2022-10-22T19:36:55.204Z,28.63
2022-10-22T19:39:23.909Z,30.80
2022-10-22T19:41:52.661Z,33.37
2022-10-22T19:44:21.525Z,27.00
2022-10-22T19:46:52.739Z,31.70
2022-10-22T19:49:22.961Z,43.40
2022-10-22T19:51:52.471Z,38.73
2022-10-22T19:54:22.506Z,36.20
2022-10-22T19:56:51.794Z,36.57
2022-10-22T19:59:22.705Z,37.53
2022-10-22T20:01:51.789Z,44.87
2022-10-22T20:04:24.987Z,53.63
2022-10-22T20:06:53.616Z,56.27
2022-10-22T20:09:23.791Z,64.47
2022-10-22T20:11:52.785Z,73.13
2022-10-22T20:14:21.405Z,78.27
2022-10-22T20:16:52.414Z,61.17
2022-10-22T20:19:21.456Z,52.23
2022-10-22T20:21:50.596Z,58.63
2022-10-22T20:24:19.850Z,66.67
2022-10-22T20:26:50.087Z,68.17
2022-10-22T20:29:19.520Z,71.70
2022-10-22T20:31:48.599Z,85.70
2022-10-22T20:34:17.812Z,109.60
2022-10-22T20:36:46.953Z,94.80
2022-10-22T20:39:17.535Z,101.13
2022-10-22T20:41:46.361Z,91.13
2022-10-22T20:44:19.056Z,66.57
2022-10-22T20:46:47.863Z,62.17
2022-10-22T20:49:18.959Z,72.70
2022-10-22T20:51:48.562Z,77.60
2022-10-22T20:54:19.156Z,68.07
2022-10-22T20:56:48.991Z,62.80
2022-10-22T20:59:19.804Z,58.60
2022-10-22T21:01:52.426Z,53.57
2022-10-22T21:04:23.214Z,55.20
2022-10-22T21:06:53.150Z,67.50
2022-10-22T21:09:22.893Z,62.00
2022-10-22T21:14:24.544Z,59.10
2022-10-22T21:16:53.297Z,56.70
2022-10-22T21:19:24.632Z,55.13
2022-10-22T21:21:53.511Z,61.23
2022-10-22T21:24:24.699Z,58.10
2022-10-22T21:26:54.516Z,49.90
2022-10-22T21:29:25.147Z,50.33
2022-10-22T21:31:54.667Z,51.03
2022-10-22T21:34:23.609Z,41.10
2022-10-22T21:36:52.837Z,47.70
2022-10-22T21:39:21.852Z,35.73
2022-10-22T21:41:50.815Z,31.20
2022-10-22T21:44:19.579Z,44.53
2022-10-22T21:46:49.770Z,42.20
2022-10-22T21:49:18.860Z,36.47
2022-10-22T21:51:47.902Z,36.47
2022-10-22T21:54:16.806Z,47.87
2022-10-22T21:56:45.414Z,46.97
2022-10-22T21:59:14.139Z,35.50
2022-10-22T22:01:43.072Z,42.70
2022-10-22T22:04:13.576Z,46.83
2022-10-22T22:06:42.182Z,35.53
2022-10-22T22:09:11.032Z,33.87
2022-10-22T22:11:39.944Z,39.20
2022-10-22T22:14:08.826Z,36.03
2022-10-22T22:16:37.771Z,43.30
2022-10-22T22:19:09.799Z,36.60
2022-10-22T22:21:42.343Z,38.17
2022-10-22T22:24:14.397Z,35.10
2022-10-22T22:26:43.001Z,38.07
2022-10-22T22:29:12.409Z,36.37
2022-10-22T22:31:41.025Z,42.53
2022-10-22T22:34:14.512Z,35.73
2022-10-22T22:36:48.019Z,36.33
2022-10-22T22:39:19.132Z,41.83
2022-10-22T22:41:48.157Z,35.20
2022-10-22T22:44:16.884Z,35.87
2022-10-22T22:46:45.708Z,39.20
2022-10-22T22:49:14.956Z,35.13
2022-10-22T22:51:45.358Z,34.27
2022-10-22T22:54:14.099Z,42.63
2022-10-22T22:56:42.605Z,38.20
2022-10-22T22:59:12.490Z,36.37
2022-10-22T23:01:41.354Z,37.27
2022-10-22T23:04:19.307Z,37.80
2022-10-22T23:06:49.261Z,39.23
2022-10-22T23:11:54.125Z,38.83
2022-10-22T23:14:22.705Z,41.23
2022-10-22T23:16:53.869Z,33.93
2022-10-22T23:19:24.479Z,41.57
2022-10-22T23:21:57.181Z,39.23
2022-10-22T23:24:29.415Z,38.30
2022-10-22T23:27:01.888Z,36.03
2022-10-22T23:29:32.870Z,38.63
2022-10-22T23:32:03.256Z,39.87
2022-10-22T23:34:32.511Z,39.90
2022-10-22T23:37:02.452Z,37.70
2022-10-22T23:39:31.378Z,37.17
2022-10-22T23:42:00.298Z,43.17
2022-10-22T23:44:28.951Z,41.23
2022-10-22T23:46:57.525Z,44.97
2022-10-22T23:49:26.175Z,49.13
2022-10-22T23:51:54.718Z,39.90
2022-10-22T23:54:24.703Z,40.13
2022-10-22T23:56:53.257Z,39.13
2022-10-22T23:59:21.882Z,40.97
